createdAt,value
2022-09-11T00:02:50.293Z,22.19
2022-09-11T00:09:36.736Z,22.23
2022-09-11T00:16:29.434Z,21.98
2022-09-11T00:23:17.652Z,22.39
2022-09-11T00:30:03.764Z,22.40
2022-09-11T00:36:52.312Z,22.39
2022-09-11T00:44:03.027Z,22.39
2022-09-11T00:50:49.777Z,22.44
2022-09-11T00:57:45.477Z,22.38
2022-09-11T01:04:32.548Z,22.42
2022-09-11T01:11:34.400Z,22.38
2022-09-11T01:18:32.509Z,22.41
2022-09-11T01:25:30.203Z,22.43
2022-09-11T01:32:24.922Z,22.43
2022-09-11T01:39:10.998Z,22.48
2022-09-11T01:45:59.390Z,22.20
2022-09-11T01:52:53.475Z,22.47
2022-09-11T01:59:44.070Z,22.50
2022-09-11T02:06:36.478Z,22.51
2022-09-11T02:13:32.876Z,22.56
2022-09-11T02:20:22.318Z,22.66
2022-09-11T02:27:12.611Z,22.69
2022-09-11T02:34:00.844Z,22.72
2022-09-11T02:40:56.169Z,22.72
2022-09-11T03:01:32.373Z,22.66
2022-09-11T03:08:20.386Z,22.60
2022-09-11T03:15:07.081Z,22.48
2022-09-11T03:21:55.736Z,22.43
2022-09-11T03:28:41.301Z,22.45
2022-09-11T03:35:27.416Z,22.43
2022-09-11T03:42:15.927Z,22.41
2022-09-11T03:49:02.133Z,22.18
2022-09-11T03:55:50.103Z,22.51
2022-09-11T04:02:38.443Z,22.28
2022-09-11T04:09:24.487Z,22.45
2022-09-11T04:16:14.852Z,22.56
2022-09-11T04:23:05.696Z,22.57
2022-09-11T04:29:51.861Z,22.64
2022-09-11T04:36:37.469Z,22.66
2022-09-11T04:43:27.610Z,22.64
2022-09-11T04:50:16.478Z,22.60
2022-09-11T04:57:02.284Z,22.64
2022-09-11T05:03:50.815Z,22.53
2022-09-11T05:10:42.306Z,22.50
2022-09-11T05:17:28.516Z,22.49
2022-09-11T05:24:16.580Z,22.58
2022-09-11T05:31:03.236Z,22.64
2022-09-11T05:37:49.120Z,22.45
2022-09-11T05:44:37.269Z,22.75
2022-09-11T05:51:25.259Z,22.78
2022-09-11T05:58:11.337Z,21.77
2022-09-11T06:04:59.412Z,22.73
2022-09-11T06:11:44.911Z,22.64
2022-09-11T06:18:30.713Z,22.65
2022-09-11T06:25:18.953Z,22.65
2022-09-11T06:32:04.645Z,22.69
2022-09-11T06:38:56.995Z,22.77
2022-09-11T06:45:48.389Z,22.90
2022-09-11T06:52:37.696Z,22.81
2022-09-11T06:59:44.906Z,22.72
2022-09-11T07:06:35.243Z,22.42
2022-09-11T07:13:21.044Z,22.53
2022-09-11T07:20:07.682Z,22.47
2022-09-11T07:26:56.095Z,22.67
2022-09-11T07:33:49.944Z,22.72
2022-09-11T07:40:35.451Z,22.91
2022-09-11T07:47:24.085Z,23.01
2022-09-11T07:54:13.056Z,22.95
2022-09-11T08:01:02.533Z,22.92
2022-09-11T08:07:51.139Z,23.11
2022-09-11T08:14:38.095Z,23.25
2022-09-11T08:21:29.269Z,23.41
2022-09-11T08:28:18.044Z,23.53
2022-09-11T08:35:03.597Z,23.64
2022-09-11T08:41:53.722Z,23.76
2022-09-11T08:48:55.444Z,23.84
2022-09-11T08:55:46.255Z,23.08
2022-09-11T09:02:52.813Z,24.20
2022-09-11T09:09:50.976Z,24.33
2022-09-11T09:16:51.844Z,24.32
2022-09-11T09:23:45.019Z,24.30
2022-09-11T09:30:51.648Z,24.26
2022-09-11T09:37:37.405Z,24.55
2022-09-11T09:44:49.428Z,24.60
2022-09-11T09:51:37.521Z,24.84
2022-09-11T09:58:26.084Z,25.05
2022-09-11T10:05:22.286Z,25.18
2022-09-11T10:12:18.112Z,24.95
2022-09-11T10:19:03.450Z,25.18
2022-09-11T10:25:52.307Z,25.16
2022-09-11T10:32:45.409Z,24.69
2022-09-11T10:39:34.757Z,24.97
2022-09-11T10:46:39.981Z,25.01
2022-09-11T10:53:29.479Z,25.14
2022-09-11T11:00:21.598Z,25.26
2022-09-11T11:07:22.710Z,25.39
2022-09-11T11:14:44.075Z,25.52
2022-09-11T11:21:44.677Z,25.65
2022-09-11T11:28:58.599Z,25.70
2022-09-11T11:35:59.621Z,25.77
2022-09-11T11:42:55.365Z,25.87
2022-09-11T11:49:57.953Z,25.90
2022-09-11T11:56:52.694Z,25.58
2022-09-11T12:03:43.290Z,25.95
2022-09-11T12:10:36.959Z,25.91
2022-09-11T12:17:30.340Z,25.99
2022-09-11T12:24:22.276Z,25.82
2022-09-11T12:31:11.419Z,26.25
2022-09-11T12:38:13.360Z,26.11
2022-09-11T12:45:04.769Z,26.27
2022-09-11T12:51:56.788Z,26.33
2022-09-11T12:58:48.220Z,26.15
2022-09-11T13:05:38.168Z,26.56
2022-09-11T13:12:53.875Z,26.62
2022-09-11T13:19:42.557Z,26.62
2022-09-11T13:26:32.713Z,26.21
2022-09-11T13:33:27.900Z,26.89
2022-09-11T13:40:25.629Z,26.90
2022-09-11T13:47:22.201Z,26.89
2022-09-11T13:54:14.461Z,27.02
2022-09-11T14:01:14.304Z,27.09
2022-09-11T14:08:07.428Z,27.19
2022-09-11T14:14:57.618Z,27.18
2022-09-11T14:21:48.799Z,27.15
2022-09-11T14:28:43.978Z,27.12
2022-09-11T14:35:32.556Z,27.17
2022-09-11T14:42:24.633Z,27.26
2022-09-11T14:49:12.856Z,27.42
2022-09-11T14:55:59.757Z,27.49
2022-09-11T15:02:48.463Z,27.61
2022-09-11T15:09:33.897Z,27.65
2022-09-11T15:16:19.261Z,27.70
2022-09-11T15:23:07.316Z,27.87
2022-09-11T15:29:52.677Z,27.78
2022-09-11T15:36:38.883Z,27.77
2022-09-11T15:43:27.461Z,27.76
2022-09-11T15:50:18.211Z,27.83
2022-09-11T15:57:03.741Z,27.90
2022-09-11T16:03:53.299Z,28.09
2022-09-11T16:10:40.860Z,27.95
2022-09-11T16:17:31.108Z,27.99
2022-09-11T16:24:20.165Z,27.95
2022-09-11T16:31:07.677Z,27.48
2022-09-11T16:37:53.067Z,27.96
2022-09-11T16:44:41.025Z,27.90
2022-09-11T16:51:28.139Z,27.79
2022-09-11T16:58:13.548Z,27.87
2022-09-11T17:05:01.530Z,27.86
2022-09-11T17:11:48.173Z,27.88
2022-09-11T17:18:33.772Z,27.59
2022-09-11T17:25:22.015Z,27.77
2022-09-11T17:39:13.005Z,27.66
2022-09-11T17:46:07.754Z,27.73
2022-09-11T17:52:54.192Z,27.47
2022-09-11T17:59:39.614Z,27.34
2022-09-11T18:06:33.996Z,27.25
2022-09-11T18:13:22.130Z,27.18
2022-09-11T18:20:09.766Z,27.09
2022-09-11T18:27:00.898Z,26.98
2022-09-11T18:33:47.139Z,26.93
2022-09-11T18:40:32.546Z,26.91
2022-09-11T18:47:20.803Z,26.83
2022-09-11T18:54:17.745Z,26.53
2022-09-11T19:01:05.552Z,26.51
2022-09-11T19:07:52.195Z,26.53
2022-09-11T19:14:40.792Z,26.41
2022-09-11T19:21:27.601Z,26.32
2022-09-11T19:28:13.166Z,26.22
2022-09-11T19:35:02.727Z,26.11
2022-09-11T19:41:48.109Z,25.95
2022-09-11T19:48:33.692Z,25.91
2022-09-11T19:55:21.696Z,25.66
2022-09-11T20:02:07.425Z,25.49
2022-09-11T20:09:03.115Z,25.68
2022-09-11T20:16:06.387Z,25.35
2022-09-11T20:22:51.738Z,25.27
2022-09-11T20:29:40.018Z,25.20
2022-09-11T20:36:30.180Z,24.63
2022-09-11T20:43:15.605Z,24.66
2022-09-11T20:50:00.974Z,24.85
2022-09-11T20:56:48.964Z,24.67
2022-09-11T21:03:35.169Z,24.54
2022-09-11T21:10:20.745Z,24.07
2022-09-11T21:17:09.028Z,24.33
2022-09-11T21:23:57.682Z,24.19
2022-09-11T21:30:43.081Z,24.08
2022-09-11T21:37:31.095Z,23.99
2022-09-11T21:44:16.916Z,23.19
2022-09-11T21:51:09.797Z,23.74
2022-09-11T21:57:57.962Z,23.67
2022-09-11T22:04:43.613Z,23.19
2022-09-11T22:11:29.164Z,23.64
2022-09-11T22:18:18.483Z,23.17
2022-09-11T22:25:03.926Z,23.62
2022-09-11T22:31:49.333Z,23.65
2022-09-11T22:38:37.381Z,23.62
2022-09-11T22:45:22.749Z,23.63
2022-09-11T22:52:08.440Z,23.64
2022-09-11T22:58:57.045Z,23.99
2022-09-11T23:05:54.965Z,24.15
2022-09-11T23:12:40.349Z,24.17
2022-09-11T23:19:28.736Z,23.95
2022-09-11T23:26:15.988Z,23.97
2022-09-11T23:33:01.383Z,23.88
2022-09-11T23:39:49.757Z,23.68
2022-09-11T23:46:35.368Z,23.50
2022-09-11T23:53:20.815Z,23.40
